sensor_id;sensor_type;location;lat;lon;timestamp;P1;durP1;ratioP1;P2;durP2;ratioP2
13085;SDS011;6609;49.882;8.664;2023-12-22T00:02:05;2.07;;;0.67;;
13085;SDS011;6609;49.882;8.664;2023-12-22T00:04:32;1.27;;;0.70;;
13085;SDS011;6609;49.882;8.664;2023-12-22T00:06:59;1.13;;;0.80;;
13085;SDS011;6609;49.882;8.664;2023-12-22T00:09:26;1.00;;;0.73;;
13085;SDS011;6609;49.882;8.664;2023-12-22T00:11:54;2.47;;;1.60;;
13085;SDS011;6609;49.882;8.664;2023-12-22T00:14:21;2.23;;;1.20;;
13085;SDS011;6609;49.882;8.664;2023-12-22T00:16:47;2.20;;;1.00;;
13085;SDS011;6609;49.882;8.664;2023-12-22T00:19:14;0.90;;;0.77;;
13085;SDS011;6609;49.882;8.664;2023-12-22T00:21:41;2.30;;;0.90;;
13085;SDS011;6609;49.882;8.664;2023-12-22T00:24:08;0.73;;;0.73;;
13085;SDS011;6609;49.882;8.664;2023-12-22T00:26:35;1.50;;;0.70;;
13085;SDS011;6609;49.882;8.664;2023-12-22T00:29:04;2.30;;;1.07;;
13085;SDS011;6609;49.882;8.664;2023-12-22T00:31:30;1.43;;;1.07;;
13085;SDS011;6609;49.882;8.664;2023-12-22T00:33:57;1.47;;;0.97;;
13085;SDS011;6609;49.882;8.664;2023-12-22T00:36:25;4.40;;;1.23;;
13085;SDS011;6609;49.882;8.664;2023-12-22T00:38:52;1.83;;;1.10;;
13085;SDS011;6609;49.882;8.664;2023-12-22T00:41:19;1.23;;;1.00;;
13085;SDS011;6609;49.882;8.664;2023-12-22T00:43:46;2.30;;;0.70;;
13085;SDS011;6609;49.882;8.664;2023-12-22T00:46:15;2.47;;;1.20;;
13085;SDS011;6609;49.882;8.664;2023-12-22T00:48:41;3.63;;;1.33;;
13085;SDS011;6609;49.882;8.664;2023-12-22T00:51:07;1.83;;;1.43;;
13085;SDS011;6609;49.882;8.664;2023-12-22T00:53:35;3.30;;;1.07;;
13085;SDS011;6609;49.882;8.664;2023-12-22T00:56:02;1.43;;;1.00;;
13085;SDS011;6609;49.882;8.664;2023-12-22T00:58:29;1.63;;;1.27;;
13085;SDS011;6609;49.882;8.664;2023-12-22T01:00:56;4.77;;;2.23;;
13085;SDS011;6609;49.882;8.664;2023-12-22T01:03:25;3.40;;;1.37;;
13085;SDS011;6609;49.882;8.664;2023-12-22T01:05:55;3.23;;;1.40;;
13085;SDS011;6609;49.882;8.664;2023-12-22T01:08:22;3.73;;;1.53;;
13085;SDS011;6609;49.882;8.664;2023-12-22T01:10:49;3.80;;;1.80;;
13085;SDS011;6609;49.882;8.664;2023-12-22T01:13:16;3.53;;;1.80;;
13085;SDS011;6609;49.882;8.664;2023-12-22T01:15:43;4.70;;;1.57;;
13085;SDS011;6609;49.882;8.664;2023-12-22T01:18:10;4.20;;;1.77;;
13085;SDS011;6609;49.882;8.664;2023-12-22T01:20:38;3.67;;;1.30;;
13085;SDS011;6609;49.882;8.664;2023-12-22T01:23:06;1.73;;;1.27;;
13085;SDS011;6609;49.882;8.664;2023-12-22T01:25:33;2.07;;;1.03;;
13085;SDS011;6609;49.882;8.664;2023-12-22T01:27:59;6.47;;;1.33;;
13085;SDS011;6609;49.882;8.664;2023-12-22T01:30:28;3.07;;;1.03;;
13085;SDS011;6609;49.882;8.664;2023-12-22T01:32:55;1.43;;;1.10;;
13085;SDS011;6609;49.882;8.664;2023-12-22T01:35:22;2.27;;;1.47;;
13085;SDS011;6609;49.882;8.664;2023-12-22T01:37:50;3.20;;;1.23;;
13085;SDS011;6609;49.882;8.664;2023-12-22T01:40:17;1.27;;;0.97;;
13085;SDS011;6609;49.882;8.664;2023-12-22T01:42:44;3.83;;;1.60;;
13085;SDS011;6609;49.882;8.664;2023-12-22T01:45:12;3.43;;;1.53;;
13085;SDS011;6609;49.882;8.664;2023-12-22T01:47:39;1.73;;;0.90;;
13085;SDS011;6609;49.882;8.664;2023-12-22T01:50:06;3.37;;;1.20;;
13085;SDS011;6609;49.882;8.664;2023-12-22T01:52:35;1.10;;;1.00;;
13085;SDS011;6609;49.882;8.664;2023-12-22T01:55:04;1.53;;;0.97;;
13085;SDS011;6609;49.882;8.664;2023-12-22T01:57:32;5.00;;;1.10;;
13085;SDS011;6609;49.882;8.664;2023-12-22T02:00:00;1.07;;;0.87;;
13085;SDS011;6609;49.882;8.664;2023-12-22T02:02:27;1.13;;;0.80;;
13085;SDS011;6609;49.882;8.664;2023-12-22T02:04:55;3.77;;;1.00;;
13085;SDS011;6609;49.882;8.664;2023-12-22T02:07:22;1.53;;;1.00;;
13085;SDS011;6609;49.882;8.664;2023-12-22T02:09:48;3.00;;;1.07;;
13085;SDS011;6609;49.882;8.664;2023-12-22T02:12:17;1.87;;;0.80;;
13085;SDS011;6609;49.882;8.664;2023-12-22T02:14:43;3.47;;;1.10;;
13085;SDS011;6609;49.882;8.664;2023-12-22T02:17:14;2.67;;;1.03;;
13085;SDS011;6609;49.882;8.664;2023-12-22T02:19:47;1.90;;;0.90;;
13085;SDS011;6609;49.882;8.664;2023-12-22T02:22:14;1.10;;;1.00;;
13085;SDS011;6609;49.882;8.664;2023-12-22T02:24:43;1.57;;;0.80;;
13085;SDS011;6609;49.882;8.664;2023-12-22T02:27:14;1.80;;;0.97;;
13085;SDS011;6609;49.882;8.664;2023-12-22T02:29:48;2.50;;;0.83;;
13085;SDS011;6609;49.882;8.664;2023-12-22T02:32:21;1.70;;;1.07;;
13085;SDS011;6609;49.882;8.664;2023-12-22T02:34:51;3.87;;;0.80;;
13085;SDS011;6609;49.882;8.664;2023-12-22T02:37:19;1.07;;;0.90;;
13085;SDS011;6609;49.882;8.664;2023-12-22T02:39:48;1.80;;;0.90;;
13085;SDS011;6609;49.882;8.664;2023-12-22T02:42:16;3.47;;;1.23;;
13085;SDS011;6609;49.882;8.664;2023-12-22T02:44:45;3.03;;;0.97;;
13085;SDS011;6609;49.882;8.664;2023-12-22T02:47:11;1.37;;;0.90;;
13085;SDS011;6609;49.882;8.664;2023-12-22T02:49:39;1.60;;;0.90;;
13085;SDS011;6609;49.882;8.664;2023-12-22T02:52:06;1.50;;;0.80;;
13085;SDS011;6609;49.882;8.664;2023-12-22T02:54:33;0.90;;;0.70;;
13085;SDS011;6609;49.882;8.664;2023-12-22T02:57:01;2.10;;;1.00;;
13085;SDS011;6609;49.882;8.664;2023-12-22T02:59:28;1.10;;;0.97;;
13085;SDS011;6609;49.882;8.664;2023-12-22T03:01:55;1.93;;;1.00;;
13085;SDS011;6609;49.882;8.664;2023-12-22T03:04:22;1.20;;;1.10;;
13085;SDS011;6609;49.882;8.664;2023-12-22T03:06:49;3.67;;;0.90;;
13085;SDS011;6609;49.882;8.664;2023-12-22T03:09:16;2.73;;;1.10;;
13085;SDS011;6609;49.882;8.664;2023-12-22T03:11:43;3.43;;;1.20;;
13085;SDS011;6609;49.882;8.664;2023-12-22T03:14:12;0.93;;;0.80;;
13085;SDS011;6609;49.882;8.664;2023-12-22T03:16:39;1.73;;;0.87;;
13085;SDS011;6609;49.882;8.664;2023-12-22T03:19:06;2.07;;;0.80;;
13085;SDS011;6609;49.882;8.664;2023-12-22T03:21:33;4.90;;;1.20;;
13085;SDS011;6609;49.882;8.664;2023-12-22T03:24:00;2.43;;;1.10;;
13085;SDS011;6609;49.882;8.664;2023-12-22T03:26:27;6.40;;;1.40;;
13085;SDS011;6609;49.882;8.664;2023-12-22T03:28:54;1.50;;;1.10;;
13085;SDS011;6609;49.882;8.664;2023-12-22T03:31:23;1.13;;;0.97;;
13085;SDS011;6609;49.882;8.664;2023-12-22T03:33:50;1.90;;;1.03;;
13085;SDS011;6609;49.882;8.664;2023-12-22T03:36:17;4.73;;;1.10;;
13085;SDS011;6609;49.882;8.664;2023-12-22T03:38:44;2.77;;;1.10;;
13085;SDS011;6609;49.882;8.664;2023-12-22T03:41:11;1.30;;;0.80;;
13085;SDS011;6609;49.882;8.664;2023-12-22T03:43:38;1.63;;;1.00;;
13085;SDS011;6609;49.882;8.664;2023-12-22T03:46:05;3.13;;;1.10;;
13085;SDS011;6609;49.882;8.664;2023-12-22T03:48:33;1.10;;;0.67;;
13085;SDS011;6609;49.882;8.664;2023-12-22T03:51:00;3.13;;;0.90;;
13085;SDS011;6609;49.882;8.664;2023-12-22T03:53:27;1.80;;;0.90;;
13085;SDS011;6609;49.882;8.664;2023-12-22T03:55:54;1.53;;;1.03;;
13085;SDS011;6609;49.882;8.664;2023-12-22T03:58:21;3.37;;;1.67;;
13085;SDS011;6609;49.882;8.664;2023-12-22T04:00:48;4.90;;;1.30;;
13085;SDS011;6609;49.882;8.664;2023-12-22T04:03:15;3.87;;;1.23;;
13085;SDS011;6609;49.882;8.664;2023-12-22T04:05:43;3.60;;;1.40;;
13085;SDS011;6609;49.882;8.664;2023-12-22T04:08:10;2.60;;;1.20;;
13085;SDS011;6609;49.882;8.664;2023-12-22T04:10:37;4.67;;;1.70;;
13085;SDS011;6609;49.882;8.664;2023-12-22T04:13:04;5.37;;;1.57;;
13085;SDS011;6609;49.882;8.664;2023-12-22T04:15:31;3.33;;;1.53;;
13085;SDS011;6609;49.882;8.664;2023-12-22T04:17:58;6.17;;;2.67;;
13085;SDS011;6609;49.882;8.664;2023-12-22T04:20:25;4.80;;;1.73;;
13085;SDS011;6609;49.882;8.664;2023-12-22T04:22:53;4.77;;;1.37;;
13085;SDS011;6609;49.882;8.664;2023-12-22T04:25:20;4.53;;;1.70;;
13085;SDS011;6609;49.882;8.664;2023-12-22T04:27:48;5.73;;;1.23;;
13085;SDS011;6609;49.882;8.664;2023-12-22T04:30:14;4.70;;;1.77;;
13085;SDS011;6609;49.882;8.664;2023-12-22T04:32:42;7.13;;;2.20;;
13085;SDS011;6609;49.882;8.664;2023-12-22T04:35:09;8.03;;;1.87;;
13085;SDS011;6609;49.882;8.664;2023-12-22T04:37:35;3.10;;;1.50;;
13085;SDS011;6609;49.882;8.664;2023-12-22T04:40:04;7.20;;;2.03;;
13085;SDS011;6609;49.882;8.664;2023-12-22T04:42:32;2.40;;;1.30;;
13085;SDS011;6609;49.882;8.664;2023-12-22T04:44:58;2.20;;;1.00;;
13085;SDS011;6609;49.882;8.664;2023-12-22T04:47:25;3.17;;;1.47;;
13085;SDS011;6609;49.882;8.664;2023-12-22T04:49:52;4.53;;;1.53;;
13085;SDS011;6609;49.882;8.664;2023-12-22T04:52:19;5.43;;;1.37;;
13085;SDS011;6609;49.882;8.664;2023-12-22T04:54:46;1.60;;;0.90;;
13085;SDS011;6609;49.882;8.664;2023-12-22T04:57:14;3.83;;;1.20;;
13085;SDS011;6609;49.882;8.664;2023-12-22T04:59:41;5.10;;;1.40;;
13085;SDS011;6609;49.882;8.664;2023-12-22T05:02:08;4.83;;;1.30;;
13085;SDS011;6609;49.882;8.664;2023-12-22T05:04:35;8.10;;;1.80;;
13085;SDS011;6609;49.882;8.664;2023-12-22T05:07:02;2.87;;;1.50;;
13085;SDS011;6609;49.882;8.664;2023-12-22T05:09:31;4.80;;;1.57;;
13085;SDS011;6609;49.882;8.664;2023-12-22T05:11:59;3.33;;;1.67;;
13085;SDS011;6609;49.882;8.664;2023-12-22T05:14:27;7.00;;;1.23;;
13085;SDS011;6609;49.882;8.664;2023-12-22T05:16:53;3.00;;;1.40;;
13085;SDS011;6609;49.882;8.664;2023-12-22T05:19:22;3.40;;;1.20;;
13085;SDS011;6609;49.882;8.664;2023-12-22T05:21:49;2.13;;;1.20;;
13085;SDS011;6609;49.882;8.664;2023-12-22T05:24:17;4.93;;;1.30;;
13085;SDS011;6609;49.882;8.664;2023-12-22T05:26:44;2.67;;;0.93;;
13085;SDS011;6609;49.882;8.664;2023-12-22T05:29:11;2.47;;;1.07;;
13085;SDS011;6609;49.882;8.664;2023-12-22T05:31:40;3.47;;;0.97;;
13085;SDS011;6609;49.882;8.664;2023-12-22T05:34:07;2.43;;;1.17;;
13085;SDS011;6609;49.882;8.664;2023-12-22T05:36:35;5.47;;;1.40;;
13085;SDS011;6609;49.882;8.664;2023-12-22T05:39:02;4.50;;;1.40;;
13085;SDS011;6609;49.882;8.664;2023-12-22T05:41:29;5.27;;;1.43;;
13085;SDS011;6609;49.882;8.664;2023-12-22T05:43:56;6.67;;;2.23;;
13085;SDS011;6609;49.882;8.664;2023-12-22T05:46:23;4.90;;;1.80;;
13085;SDS011;6609;49.882;8.664;2023-12-22T05:48:51;5.87;;;1.97;;
13085;SDS011;6609;49.882;8.664;2023-12-22T05:51:18;5.10;;;1.70;;
13085;SDS011;6609;49.882;8.664;2023-12-22T05:53:44;5.63;;;1.60;;
13085;SDS011;6609;49.882;8.664;2023-12-22T05:56:17;6.37;;;2.17;;
13085;SDS011;6609;49.882;8.664;2023-12-22T05:58:45;5.13;;;1.73;;
13085;SDS011;6609;49.882;8.664;2023-12-22T06:01:15;5.53;;;1.30;;
13085;SDS011;6609;49.882;8.664;2023-12-22T06:03:43;3.87;;;1.23;;
13085;SDS011;6609;49.882;8.664;2023-12-22T06:06:11;3.47;;;1.70;;
13085;SDS011;6609;49.882;8.664;2023-12-22T06:08:39;5.00;;;1.37;;
13085;SDS011;6609;49.882;8.664;2023-12-22T06:11:06;7.40;;;1.57;;
13085;SDS011;6609;49.882;8.664;2023-12-22T06:13:33;2.40;;;1.23;;
13085;SDS011;6609;49.882;8.664;2023-12-22T06:16:00;2.83;;;1.00;;
13085;SDS011;6609;49.882;8.664;2023-12-22T06:18:27;1.63;;;1.10;;
13085;SDS011;6609;49.882;8.664;2023-12-22T06:20:54;4.43;;;1.43;;
13085;SDS011;6609;49.882;8.664;2023-12-22T06:23:22;1.63;;;0.90;;
13085;SDS011;6609;49.882;8.664;2023-12-22T06:25:49;5.40;;;1.60;;
13085;SDS011;6609;49.882;8.664;2023-12-22T06:28:16;4.33;;;1.23;;
13085;SDS011;6609;49.882;8.664;2023-12-22T06:30:43;3.13;;;1.60;;
13085;SDS011;6609;49.882;8.664;2023-12-22T06:33:12;4.07;;;1.37;;
13085;SDS011;6609;49.882;8.664;2023-12-22T06:35:39;4.13;;;1.30;;
13085;SDS011;6609;49.882;8.664;2023-12-22T06:38:06;3.23;;;1.30;;
13085;SDS011;6609;49.882;8.664;2023-12-22T06:40:37;4.90;;;1.23;;
13085;SDS011;6609;49.882;8.664;2023-12-22T06:43:04;4.73;;;1.20;;
13085;SDS011;6609;49.882;8.664;2023-12-22T06:45:32;2.07;;;1.20;;
13085;SDS011;6609;49.882;8.664;2023-12-22T06:47:59;2.97;;;1.40;;
13085;SDS011;6609;49.882;8.664;2023-12-22T06:50:26;3.57;;;1.43;;
13085;SDS011;6609;49.882;8.664;2023-12-22T06:52:53;4.33;;;1.77;;
13085;SDS011;6609;49.882;8.664;2023-12-22T06:55:20;3.40;;;1.30;;
13085;SDS011;6609;49.882;8.664;2023-12-22T06:57:48;3.87;;;1.73;;
13085;SDS011;6609;49.882;8.664;2023-12-22T07:00:15;2.37;;;1.40;;
13085;SDS011;6609;49.882;8.664;2023-12-22T07:02:42;4.73;;;1.20;;
13085;SDS011;6609;49.882;8.664;2023-12-22T07:07:57;5.50;;;1.40;;
13085;SDS011;6609;49.882;8.664;2023-12-22T07:10:24;3.77;;;1.63;;
13085;SDS011;6609;49.882;8.664;2023-12-22T07:12:52;4.87;;;1.50;;
13085;SDS011;6609;49.882;8.664;2023-12-22T07:15:19;6.73;;;2.00;;
13085;SDS011;6609;49.882;8.664;2023-12-22T07:17:46;5.03;;;1.40;;
13085;SDS011;6609;49.882;8.664;2023-12-22T07:20:13;3.87;;;1.43;;
13085;SDS011;6609;49.882;8.664;2023-12-22T07:22:40;5.23;;;1.43;;
13085;SDS011;6609;49.882;8.664;2023-12-22T07:25:08;5.47;;;1.50;;
13085;SDS011;6609;49.882;8.664;2023-12-22T07:27:35;5.47;;;1.60;;
13085;SDS011;6609;49.882;8.664;2023-12-22T07:30:04;2.23;;;1.40;;
13085;SDS011;6609;49.882;8.664;2023-12-22T07:32:32;2.63;;;1.53;;
13085;SDS011;6609;49.882;8.664;2023-12-22T07:34:59;4.47;;;1.83;;
13085;SDS011;6609;49.882;8.664;2023-12-22T07:37:26;3.27;;;1.80;;
13085;SDS011;6609;49.882;8.664;2023-12-22T07:39:53;4.03;;;1.67;;
13085;SDS011;6609;49.882;8.664;2023-12-22T07:42:20;9.60;;;1.67;;
13085;SDS011;6609;49.882;8.664;2023-12-22T07:44:47;5.43;;;1.67;;
13085;SDS011;6609;49.882;8.664;2023-12-22T07:47:15;4.47;;;1.60;;
13085;SDS011;6609;49.882;8.664;2023-12-22T07:49:42;5.60;;;1.60;;
13085;SDS011;6609;49.882;8.664;2023-12-22T07:52:09;5.60;;;1.80;;
13085;SDS011;6609;49.882;8.664;2023-12-22T07:54:36;5.67;;;1.53;;
13085;SDS011;6609;49.882;8.664;2023-12-22T07:57:04;7.90;;;2.30;;
13085;SDS011;6609;49.882;8.664;2023-12-22T07:59:31;9.50;;;2.63;;
13085;SDS011;6609;49.882;8.664;2023-12-22T08:01:58;10.57;;;2.27;;
13085;SDS011;6609;49.882;8.664;2023-12-22T08:04:26;5.57;;;2.30;;
13085;SDS011;6609;49.882;8.664;2023-12-22T08:06:53;8.80;;;1.93;;
13085;SDS011;6609;49.882;8.664;2023-12-22T08:09:20;9.90;;;2.57;;
13085;SDS011;6609;49.882;8.664;2023-12-22T08:11:48;8.93;;;2.30;;
13085;SDS011;6609;49.882;8.664;2023-12-22T08:14:17;6.67;;;2.80;;
13085;SDS011;6609;49.882;8.664;2023-12-22T08:16:44;4.87;;;1.87;;
13085;SDS011;6609;49.882;8.664;2023-12-22T08:19:11;6.80;;;2.07;;
13085;SDS011;6609;49.882;8.664;2023-12-22T08:21:40;5.97;;;2.23;;
13085;SDS011;6609;49.882;8.664;2023-12-22T08:24:09;7.67;;;2.50;;
13085;SDS011;6609;49.882;8.664;2023-12-22T08:26:36;8.27;;;2.67;;
13085;SDS011;6609;49.882;8.664;2023-12-22T08:29:03;7.23;;;1.80;;
13085;SDS011;6609;49.882;8.664;2023-12-22T08:31:30;5.97;;;2.00;;
13085;SDS011;6609;49.882;8.664;2023-12-22T08:33:58;4.30;;;1.37;;
13085;SDS011;6609;49.882;8.664;2023-12-22T08:36:25;4.53;;;2.40;;
13085;SDS011;6609;49.882;8.664;2023-12-22T08:38:53;4.67;;;2.13;;
13085;SDS011;6609;49.882;8.664;2023-12-22T08:41:20;6.17;;;2.40;;
13085;SDS011;6609;49.882;8.664;2023-12-22T08:43:48;4.60;;;2.13;;
13085;SDS011;6609;49.882;8.664;2023-12-22T08:46:15;4.40;;;1.80;;
13085;SDS011;6609;49.882;8.664;2023-12-22T08:48:43;4.77;;;1.97;;
13085;SDS011;6609;49.882;8.664;2023-12-22T08:51:10;4.83;;;2.20;;
13085;SDS011;6609;49.882;8.664;2023-12-22T08:53:37;6.17;;;1.90;;
13085;SDS011;6609;49.882;8.664;2023-12-22T08:56:06;8.87;;;2.70;;
13085;SDS011;6609;49.882;8.664;2023-12-22T08:58:33;7.27;;;2.17;;
13085;SDS011;6609;49.882;8.664;2023-12-22T09:01:00;5.20;;;2.23;;
13085;SDS011;6609;49.882;8.664;2023-12-22T09:03:27;8.43;;;2.00;;
13085;SDS011;6609;49.882;8.664;2023-12-22T09:05:55;11.20;;;2.43;;
13085;SDS011;6609;49.882;8.664;2023-12-22T09:08:22;8.03;;;2.50;;
13085;SDS011;6609;49.882;8.664;2023-12-22T09:10:49;6.77;;;2.00;;
13085;SDS011;6609;49.882;8.664;2023-12-22T09:13:18;6.27;;;2.23;;
13085;SDS011;6609;49.882;8.664;2023-12-22T09:15:45;5.80;;;2.43;;
13085;SDS011;6609;49.882;8.664;2023-12-22T09:18:14;7.80;;;2.43;;
13085;SDS011;6609;49.882;8.664;2023-12-22T09:20:41;8.70;;;2.43;;
13085;SDS011;6609;49.882;8.664;2023-12-22T09:23:08;5.90;;;1.87;;
13085;SDS011;6609;49.882;8.664;2023-12-22T09:25:35;8.90;;;2.47;;
13085;SDS011;6609;49.882;8.664;2023-12-22T09:28:02;7.00;;;2.40;;
13085;SDS011;6609;49.882;8.664;2023-12-22T09:30:30;4.70;;;1.97;;
13085;SDS011;6609;49.882;8.664;2023-12-22T09:32:58;6.43;;;2.10;;
13085;SDS011;6609;49.882;8.664;2023-12-22T09:35:25;4.17;;;1.97;;
13085;SDS011;6609;49.882;8.664;2023-12-22T09:37:53;6.83;;;2.67;;
13085;SDS011;6609;49.882;8.664;2023-12-22T09:40:19;7.30;;;2.37;;
13085;SDS011;6609;49.882;8.664;2023-12-22T09:42:47;6.37;;;2.47;;
13085;SDS011;6609;49.882;8.664;2023-12-22T09:45:15;6.60;;;2.13;;
13085;SDS011;6609;49.882;8.664;2023-12-22T09:47:44;4.50;;;1.47;;
13085;SDS011;6609;49.882;8.664;2023-12-22T09:50:12;6.57;;;2.20;;
13085;SDS011;6609;49.882;8.664;2023-12-22T09:52:40;3.83;;;1.80;;
13085;SDS011;6609;49.882;8.664;2023-12-22T09:55:09;5.33;;;2.00;;
13085;SDS011;6609;49.882;8.664;2023-12-22T09:57:37;5.37;;;2.03;;
13085;SDS011;6609;49.882;8.664;2023-12-22T10:00:05;7.00;;;1.80;;
13085;SDS011;6609;49.882;8.664;2023-12-22T10:02:33;4.33;;;2.03;;
13085;SDS011;6609;49.882;8.664;2023-12-22T10:05:01;7.40;;;2.30;;
13085;SDS011;6609;49.882;8.664;2023-12-22T10:07:29;5.97;;;2.03;;
13085;SDS011;6609;49.882;8.664;2023-12-22T10:09:58;8.17;;;1.87;;
13085;SDS011;6609;49.882;8.664;2023-12-22T10:12:26;9.87;;;3.07;;
13085;SDS011;6609;49.882;8.664;2023-12-22T10:14:54;10.30;;;2.80;;
13085;SDS011;6609;49.882;8.664;2023-12-22T10:17:21;7.83;;;3.30;;
13085;SDS011;6609;49.882;8.664;2023-12-22T10:19:49;11.23;;;4.03;;
13085;SDS011;6609;49.882;8.664;2023-12-22T10:22:17;10.10;;;3.30;;
13085;SDS011;6609;49.882;8.664;2023-12-22T10:24:48;13.27;;;2.90;;
13085;SDS011;6609;49.882;8.664;2023-12-22T10:27:16;8.67;;;2.77;;
13085;SDS011;6609;49.882;8.664;2023-12-22T10:29:47;9.40;;;3.43;;
13085;SDS011;6609;49.882;8.664;2023-12-22T10:32:14;12.73;;;3.10;;
13085;SDS011;6609;49.882;8.664;2023-12-22T10:34:41;9.40;;;2.70;;
13085;SDS011;6609;49.882;8.664;2023-12-22T10:37:09;11.60;;;3.13;;
13085;SDS011;6609;49.882;8.664;2023-12-22T10:39:39;9.87;;;3.20;;
13085;SDS011;6609;49.882;8.664;2023-12-22T10:42:06;9.00;;;2.53;;
13085;SDS011;6609;49.882;8.664;2023-12-22T10:44:34;11.77;;;3.83;;
13085;SDS011;6609;49.882;8.664;2023-12-22T10:47:01;11.67;;;3.17;;
13085;SDS011;6609;49.882;8.664;2023-12-22T10:49:28;13.03;;;3.33;;
13085;SDS011;6609;49.882;8.664;2023-12-22T10:51:59;9.53;;;3.37;;
13085;SDS011;6609;49.882;8.664;2023-12-22T10:54:26;15.57;;;3.77;;
13085;SDS011;6609;49.882;8.664;2023-12-22T10:56:55;15.03;;;3.67;;
13085;SDS011;6609;49.882;8.664;2023-12-22T10:59:25;14.07;;;3.57;;
13085;SDS011;6609;49.882;8.664;2023-12-22T11:01:56;14.93;;;3.43;;
13085;SDS011;6609;49.882;8.664;2023-12-22T11:04:25;11.63;;;3.30;;
13085;SDS011;6609;49.882;8.664;2023-12-22T11:06:57;14.57;;;3.60;;
13085;SDS011;6609;49.882;8.664;2023-12-22T11:09:25;11.50;;;3.07;;
13085;SDS011;6609;49.882;8.664;2023-12-22T11:11:55;11.47;;;3.17;;
13085;SDS011;6609;49.882;8.664;2023-12-22T11:14:23;13.27;;;3.27;;
13085;SDS011;6609;49.882;8.664;2023-12-22T11:16:50;15.07;;;3.13;;
13085;SDS011;6609;49.882;8.664;2023-12-22T11:19:18;11.77;;;3.23;;
13085;SDS011;6609;49.882;8.664;2023-12-22T11:21:45;7.63;;;3.40;;
13085;SDS011;6609;49.882;8.664;2023-12-22T11:24:14;10.33;;;3.33;;
13085;SDS011;6609;49.882;8.664;2023-12-22T11:26:42;15.73;;;3.13;;
13085;SDS011;6609;49.882;8.664;2023-12-22T11:29:10;14.37;;;2.53;;
13085;SDS011;6609;49.882;8.664;2023-12-22T11:31:38;13.40;;;3.17;;
13085;SDS011;6609;49.882;8.664;2023-12-22T11:34:06;15.50;;;3.50;;
13085;SDS011;6609;49.882;8.664;2023-12-22T11:36:34;14.57;;;3.73;;
13085;SDS011;6609;49.882;8.664;2023-12-22T11:39:03;14.63;;;3.10;;
13085;SDS011;6609;49.882;8.664;2023-12-22T11:41:31;11.90;;;3.53;;
13085;SDS011;6609;49.882;8.664;2023-12-22T11:43:59;11.97;;;3.03;;
13085;SDS011;6609;49.882;8.664;2023-12-22T11:46:28;11.53;;;3.07;;
13085;SDS011;6609;49.882;8.664;2023-12-22T11:48:55;10.00;;;3.00;;
13085;SDS011;6609;49.882;8.664;2023-12-22T11:51:23;12.70;;;2.93;;
13085;SDS011;6609;49.882;8.664;2023-12-22T11:53:51;9.07;;;3.33;;
13085;SDS011;6609;49.882;8.664;2023-12-22T11:56:18;12.57;;;3.63;;
13085;SDS011;6609;49.882;8.664;2023-12-22T11:58:47;10.07;;;2.83;;
13085;SDS011;6609;49.882;8.664;2023-12-22T12:01:20;9.07;;;2.90;;
13085;SDS011;6609;49.882;8.664;2023-12-22T12:03:51;6.30;;;2.17;;
13085;SDS011;6609;49.882;8.664;2023-12-22T12:06:22;11.60;;;2.63;;
13085;SDS011;6609;49.882;8.664;2023-12-22T12:08:58;5.07;;;1.97;;
13085;SDS011;6609;49.882;8.664;2023-12-22T12:14:29;6.73;;;2.03;;
13085;SDS011;6609;49.882;8.664;2023-12-22T12:17:00;6.83;;;2.07;;
13085;SDS011;6609;49.882;8.664;2023-12-22T12:19:31;6.97;;;2.33;;
13085;SDS011;6609;49.882;8.664;2023-12-22T12:21:59;6.97;;;2.10;;
13085;SDS011;6609;49.882;8.664;2023-12-22T12:24:26;11.57;;;2.60;;
13085;SDS011;6609;49.882;8.664;2023-12-22T12:26:54;7.93;;;2.50;;
13085;SDS011;6609;49.882;8.664;2023-12-22T12:29:21;8.40;;;2.90;;
13085;SDS011;6609;49.882;8.664;2023-12-22T12:31:48;4.67;;;1.90;;
13085;SDS011;6609;49.882;8.664;2023-12-22T12:34:16;3.77;;;2.17;;
13085;SDS011;6609;49.882;8.664;2023-12-22T12:36:47;9.27;;;2.53;;
13085;SDS011;6609;49.882;8.664;2023-12-22T12:39:15;5.07;;;1.90;;
13085;SDS011;6609;49.882;8.664;2023-12-22T12:41:44;9.80;;;1.80;;
13085;SDS011;6609;49.882;8.664;2023-12-22T12:44:18;4.57;;;2.20;;
13085;SDS011;6609;49.882;8.664;2023-12-22T12:46:46;6.63;;;1.93;;
13085;SDS011;6609;49.882;8.664;2023-12-22T12:49:14;7.80;;;2.70;;
13085;SDS011;6609;49.882;8.664;2023-12-22T12:51:41;8.40;;;2.43;;
13085;SDS011;6609;49.882;8.664;2023-12-22T12:54:10;7.43;;;2.87;;
13085;SDS011;6609;49.882;8.664;2023-12-22T12:56:38;6.77;;;2.17;;
13085;SDS011;6609;49.882;8.664;2023-12-22T12:59:06;4.53;;;1.80;;
13085;SDS011;6609;49.882;8.664;2023-12-22T13:01:40;11.13;;;3.93;;
13085;SDS011;6609;49.882;8.664;2023-12-22T13:04:07;7.83;;;2.47;;
13085;SDS011;6609;49.882;8.664;2023-12-22T13:06:35;7.03;;;2.43;;
13085;SDS011;6609;49.882;8.664;2023-12-22T13:09:02;9.10;;;2.50;;
13085;SDS011;6609;49.882;8.664;2023-12-22T13:11:31;5.27;;;2.43;;
13085;SDS011;6609;49.882;8.664;2023-12-22T13:13:58;6.90;;;2.50;;
13085;SDS011;6609;49.882;8.664;2023-12-22T13:16:26;5.33;;;1.87;;
13085;SDS011;6609;49.882;8.664;2023-12-22T13:18:55;8.83;;;2.73;;
13085;SDS011;6609;49.882;8.664;2023-12-22T13:21:23;2.87;;;1.73;;
13085;SDS011;6609;49.882;8.664;2023-12-22T13:26:34;6.40;;;2.20;;
13085;SDS011;6609;49.882;8.664;2023-12-22T13:29:01;3.27;;;1.70;;
13085;SDS011;6609;49.882;8.664;2023-12-22T13:31:27;4.40;;;2.10;;
13085;SDS011;6609;49.882;8.664;2023-12-22T13:33:57;3.47;;;1.60;;
13085;SDS011;6609;49.882;8.664;2023-12-22T13:36:24;4.17;;;1.77;;
13085;SDS011;6609;49.882;8.664;2023-12-22T13:38:51;3.97;;;1.67;;
13085;SDS011;6609;49.882;8.664;2023-12-22T13:41:18;3.10;;;1.53;;
13085;SDS011;6609;49.882;8.664;2023-12-22T13:43:47;2.03;;;1.30;;
13085;SDS011;6609;49.882;8.664;2023-12-22T13:46:15;3.20;;;1.73;;
13085;SDS011;6609;49.882;8.664;2023-12-22T13:48:42;1.33;;;1.00;;
13085;SDS011;6609;49.882;8.664;2023-12-22T13:51:09;1.60;;;1.03;;
13085;SDS011;6609;49.882;8.664;2023-12-22T13:53:46;2.20;;;1.20;;
13085;SDS011;6609;49.882;8.664;2023-12-22T13:56:13;1.40;;;1.03;;
13085;SDS011;6609;49.882;8.664;2023-12-22T13:58:43;3.23;;;1.53;;
13085;SDS011;6609;49.882;8.664;2023-12-22T14:01:14;3.50;;;1.70;;
13085;SDS011;6609;49.882;8.664;2023-12-22T14:03:41;2.07;;;1.00;;
13085;SDS011;6609;49.882;8.664;2023-12-22T14:06:09;1.27;;;1.03;;
13085;SDS011;6609;49.882;8.664;2023-12-22T14:08:37;1.43;;;1.03;;
13085;SDS011;6609;49.882;8.664;2023-12-22T14:11:05;1.63;;;1.00;;
13085;SDS011;6609;49.882;8.664;2023-12-22T14:13:32;2.00;;;1.30;;
13085;SDS011;6609;49.882;8.664;2023-12-22T14:16:00;2.60;;;1.33;;
13085;SDS011;6609;49.882;8.664;2023-12-22T14:18:29;3.20;;;1.40;;
13085;SDS011;6609;49.882;8.664;2023-12-22T14:20:56;3.13;;;1.53;;
13085;SDS011;6609;49.882;8.664;2023-12-22T14:23:23;2.10;;;1.70;;
13085;SDS011;6609;49.882;8.664;2023-12-22T14:25:50;2.67;;;1.87;;
13085;SDS011;6609;49.882;8.664;2023-12-22T14:28:18;3.20;;;1.37;;
13085;SDS011;6609;49.882;8.664;2023-12-22T14:30:45;2.17;;;1.30;;
13085;SDS011;6609;49.882;8.664;2023-12-22T14:33:12;2.03;;;1.40;;
13085;SDS011;6609;49.882;8.664;2023-12-22T14:35:41;2.60;;;1.03;;
13085;SDS011;6609;49.882;8.664;2023-12-22T14:38:08;1.20;;;1.10;;
13085;SDS011;6609;49.882;8.664;2023-12-22T14:40:35;1.07;;;0.87;;
13085;SDS011;6609;49.882;8.664;2023-12-22T14:43:02;0.90;;;0.73;;
13085;SDS011;6609;49.882;8.664;2023-12-22T14:45:29;1.20;;;1.07;;
13085;SDS011;6609;49.882;8.664;2023-12-22T14:47:56;1.27;;;1.00;;
13085;SDS011;6609;49.882;8.664;2023-12-22T14:50:23;1.67;;;1.50;;
13085;SDS011;6609;49.882;8.664;2023-12-22T14:52:51;1.80;;;1.10;;
13085;SDS011;6609;49.882;8.664;2023-12-22T14:55:19;1.70;;;1.57;;
13085;SDS011;6609;49.882;8.664;2023-12-22T14:57:46;2.10;;;1.10;;
13085;SDS011;6609;49.882;8.664;2023-12-22T15:00:14;1.30;;;1.00;;
13085;SDS011;6609;49.882;8.664;2023-12-22T15:02:41;1.27;;;1.07;;
13085;SDS011;6609;49.882;8.664;2023-12-22T15:05:08;1.30;;;0.80;;
13085;SDS011;6609;49.882;8.664;2023-12-22T15:07:35;1.10;;;0.77;;
13085;SDS011;6609;49.882;8.664;2023-12-22T15:10:04;1.57;;;1.27;;
13085;SDS011;6609;49.882;8.664;2023-12-22T15:12:31;2.97;;;1.20;;